createdAt,value
2023-03-18T00:14:51.810Z,94739.56
2023-03-18T00:29:54.007Z,94722.56
2023-03-18T00:44:55.830Z,94710.78
2023-03-18T00:59:59.480Z,94685.03
2023-03-18T01:15:01.293Z,94667.94
2023-03-18T01:30:04.937Z,94672.41
2023-03-18T01:45:21.904Z,94666.56
2023-03-18T02:00:24.401Z,94658.53
2023-03-18T02:15:28.444Z,94647.16
2023-03-18T02:30:40.204Z,94647.94
2023-03-18T02:46:09.567Z,94645.69
2023-03-18T03:01:11.817Z,94642.53
2023-03-18T03:16:15.829Z,94642.75
2023-03-18T03:31:18.089Z,94654.03
2023-03-18T03:46:20.525Z,94665.78
2023-03-18T04:01:22.321Z,94661.34
2023-03-18T04:16:24.164Z,94680.31
2023-03-18T04:31:25.983Z,94693.22
2023-03-18T04:46:30.200Z,94709.47
2023-03-18T05:01:32.326Z,94702.91
2023-03-18T05:16:34.130Z,94717.63
2023-03-18T05:31:37.195Z,94706.28
2023-03-18T05:46:39.020Z,94708.63
2023-03-18T06:01:41.808Z,94723.53
2023-03-18T06:16:43.676Z,94731.50
2023-03-18T06:31:45.469Z,94734.81
2023-03-18T06:46:47.410Z,94704.03
2023-03-18T07:01:49.611Z,94706.78
2023-03-18T07:16:51.906Z,94698.19
2023-03-18T07:31:53.800Z,94711.13
2023-03-18T07:46:56.515Z,94710.56
2023-03-18T08:01:58.566Z,94719.38
2023-03-18T08:17:00.658Z,94706.34
2023-03-18T08:32:02.765Z,94714.50
2023-03-18T08:47:04.687Z,94709.03
2023-03-18T09:02:06.460Z,94711.25
2023-03-18T09:17:09.079Z,94718.41
2023-03-18T09:32:11.285Z,94715.53
2023-03-18T09:47:35.385Z,94700.78
2023-03-18T10:02:42.759Z,94709.03
2023-03-18T10:17:49.603Z,94707.56
2023-03-18T10:33:04.208Z,94697.06
2023-03-18T10:48:12.860Z,94706.13
2023-03-18T11:03:42.332Z,94678.13
2023-03-18T11:18:46.781Z,94687.97
2023-03-18T11:33:48.580Z,94679.00
2023-03-18T11:48:50.792Z,94664.03
2023-03-18T12:03:52.684Z,94675.72
2023-03-18T12:19:12.826Z,94674.63
2023-03-18T12:34:34.344Z,94677.09
2023-03-18T12:49:45.511Z,94664.59
2023-03-18T13:04:58.058Z,94658.31
2023-03-18T13:20:02.339Z,94661.09
2023-03-18T13:35:33.301Z,94664.69
2023-03-18T13:50:40.704Z,94659.88
2023-03-18T14:05:43.743Z,94640.91
2023-03-18T14:20:45.872Z,94635.81
2023-03-18T14:35:59.403Z,94627.28
2023-03-18T14:51:23.994Z,94653.47
2023-03-18T15:06:27.147Z,94646.75
2023-03-18T15:21:32.497Z,94657.16
2023-03-18T15:36:44.765Z,94684.13
2023-03-18T15:51:48.141Z,94699.19
2023-03-18T16:06:52.578Z,94716.81
2023-03-18T16:21:56.621Z,94732.09
2023-03-18T16:36:58.365Z,94738.69
2023-03-18T16:52:02.035Z,94753.78
2023-03-18T17:07:05.142Z,94775.97
2023-03-18T17:22:20.762Z,94794.63
2023-03-18T17:37:23.766Z,94805.47
2023-03-18T17:52:25.579Z,94823.81
2023-03-18T18:07:28.598Z,94841.69
2023-03-18T18:22:30.429Z,94858.22
2023-03-18T18:37:33.756Z,94879.63
2023-03-18T18:52:35.544Z,94893.00
2023-03-18T19:07:40.473Z,94905.47
2023-03-18T19:22:43.183Z,94906.06
2023-03-18T19:37:47.728Z,94897.00
2023-03-18T19:52:49.416Z,94901.81
2023-03-18T20:07:52.205Z,94903.09
2023-03-18T20:22:59.557Z,94901.00
2023-03-18T20:38:06.270Z,94910.06
2023-03-18T20:53:17.436Z,94884.50
2023-03-18T21:08:19.385Z,94870.56
2023-03-18T21:23:27.149Z,94863.13
2023-03-18T21:38:31.069Z,94863.97
2023-03-18T21:53:33.109Z,94859.75
2023-03-18T22:08:34.860Z,94875.03
2023-03-18T22:23:36.978Z,94874.91
2023-03-18T22:38:38.755Z,94882.94
2023-03-18T22:53:42.179Z,94875.34
2023-03-18T23:08:45.742Z,94878.03
2023-03-18T23:23:47.608Z,94880.00
2023-03-18T23:38:49.393Z,94885.53
2023-03-18T23:53:51.316Z,94881.41
